sensor_id;sensor_type;location;lat;lon;timestamp;P1;durP1;ratioP1;P2;durP2;ratioP2
79526;SDS011;68974;47.754;-3.364;2023-12-14T00:01:44;5.72;;;1.45;;
79526;SDS011;68974;47.754;-3.364;2023-12-14T00:04:11;5.75;;;1.27;;
79526;SDS011;68974;47.754;-3.364;2023-12-14T00:06:37;6.70;;;1.73;;
79526;SDS011;68974;47.754;-3.364;2023-12-14T00:09:02;7.43;;;2.90;;
79526;SDS011;68974;47.754;-3.364;2023-12-14T00:11:28;4.20;;;1.35;;
79526;SDS011;68974;47.754;-3.364;2023-12-14T00:13:54;6.05;;;1.67;;
79526;SDS011;68974;47.754;-3.364;2023-12-14T00:16:20;8.10;;;1.70;;
79526;SDS011;68974;47.754;-3.364;2023-12-14T00:18:45;9.57;;;1.48;;
79526;SDS011;68974;47.754;-3.364;2023-12-14T00:21:11;3.83;;;1.40;;
79526;SDS011;68974;47.754;-3.364;2023-12-14T00:23:36;7.50;;;1.50;;
79526;SDS011;68974;47.754;-3.364;2023-12-14T00:26:02;8.02;;;1.50;;
79526;SDS011;68974;47.754;-3.364;2023-12-14T00:28:28;7.70;;;1.52;;
79526;SDS011;68974;47.754;-3.364;2023-12-14T00:30:53;6.05;;;1.48;;
79526;SDS011;68974;47.754;-3.364;2023-12-14T00:33:19;7.18;;;1.30;;
79526;SDS011;68974;47.754;-3.364;2023-12-14T00:35:44;5.72;;;1.52;;
79526;SDS011;68974;47.754;-3.364;2023-12-14T00:38:10;5.53;;;1.17;;
79526;SDS011;68974;47.754;-3.364;2023-12-14T00:40:35;8.73;;;2.45;;
79526;SDS011;68974;47.754;-3.364;2023-12-14T00:43:01;7.35;;;1.60;;
79526;SDS011;68974;47.754;-3.364;2023-12-14T00:45:26;6.90;;;1.60;;
79526;SDS011;68974;47.754;-3.364;2023-12-14T00:47:52;5.97;;;1.83;;
79526;SDS011;68974;47.754;-3.364;2023-12-14T00:50:17;5.60;;;1.70;;
79526;SDS011;68974;47.754;-3.364;2023-12-14T00:52:42;6.82;;;1.63;;
79526;SDS011;68974;47.754;-3.364;2023-12-14T00:55:09;6.95;;;1.40;;
79526;SDS011;68974;47.754;-3.364;2023-12-14T00:57:35;7.25;;;1.58;;
79526;SDS011;68974;47.754;-3.364;2023-12-14T01:00:00;3.38;;;1.30;;
79526;SDS011;68974;47.754;-3.364;2023-12-14T01:02:26;9.43;;;2.10;;
79526;SDS011;68974;47.754;-3.364;2023-12-14T01:04:51;8.23;;;2.13;;
79526;SDS011;68974;47.754;-3.364;2023-12-14T01:07:16;4.35;;;1.40;;
79526;SDS011;68974;47.754;-3.364;2023-12-14T01:09:42;9.05;;;1.40;;
79526;SDS011;68974;47.754;-3.364;2023-12-14T01:12:07;5.45;;;1.60;;
79526;SDS011;68974;47.754;-3.364;2023-12-14T01:14:33;6.70;;;1.65;;
79526;SDS011;68974;47.754;-3.364;2023-12-14T01:16:59;6.97;;;1.65;;
79526;SDS011;68974;47.754;-3.364;2023-12-14T01:19:25;6.15;;;1.45;;
79526;SDS011;68974;47.754;-3.364;2023-12-14T01:21:50;3.63;;;1.10;;
79526;SDS011;68974;47.754;-3.364;2023-12-14T01:24:16;7.28;;;1.45;;
79526;SDS011;68974;47.754;-3.364;2023-12-14T01:26:42;9.63;;;2.45;;
79526;SDS011;68974;47.754;-3.364;2023-12-14T01:29:07;6.47;;;1.70;;
79526;SDS011;68974;47.754;-3.364;2023-12-14T01:31:32;10.07;;;1.60;;
79526;SDS011;68974;47.754;-3.364;2023-12-14T01:33:58;6.13;;;1.30;;
79526;SDS011;68974;47.754;-3.364;2023-12-14T01:36:24;3.15;;;1.05;;
79526;SDS011;68974;47.754;-3.364;2023-12-14T01:38:51;6.07;;;1.60;;
79526;SDS011;68974;47.754;-3.364;2023-12-14T01:41:17;6.80;;;1.25;;
79526;SDS011;68974;47.754;-3.364;2023-12-14T01:43:43;10.38;;;1.27;;
79526;SDS011;68974;47.754;-3.364;2023-12-14T01:46:09;8.73;;;1.55;;
79526;SDS011;68974;47.754;-3.364;2023-12-14T01:48:35;6.00;;;1.60;;
79526;SDS011;68974;47.754;-3.364;2023-12-14T01:51:00;6.57;;;1.50;;
79526;SDS011;68974;47.754;-3.364;2023-12-14T01:53:26;6.78;;;1.42;;
79526;SDS011;68974;47.754;-3.364;2023-12-14T01:55:51;7.38;;;1.50;;
79526;SDS011;68974;47.754;-3.364;2023-12-14T01:58:17;5.18;;;1.52;;
79526;SDS011;68974;47.754;-3.364;2023-12-14T02:00:44;8.13;;;1.63;;
79526;SDS011;68974;47.754;-3.364;2023-12-14T02:03:17;8.13;;;1.38;;
79526;SDS011;68974;47.754;-3.364;2023-12-14T02:05:43;4.50;;;1.15;;
79526;SDS011;68974;47.754;-3.364;2023-12-14T02:08:09;10.25;;;1.58;;
79526;SDS011;68974;47.754;-3.364;2023-12-14T02:10:34;13.13;;;3.38;;
79526;SDS011;68974;47.754;-3.364;2023-12-14T02:13:03;7.95;;;1.20;;
79526;SDS011;68974;47.754;-3.364;2023-12-14T02:15:29;8.25;;;1.35;;
79526;SDS011;68974;47.754;-3.364;2023-12-14T02:17:54;3.95;;;1.20;;
79526;SDS011;68974;47.754;-3.364;2023-12-14T02:20:20;5.85;;;1.15;;
79526;SDS011;68974;47.754;-3.364;2023-12-14T02:22:50;6.72;;;1.27;;
79526;SDS011;68974;47.754;-3.364;2023-12-14T02:25:16;8.02;;;1.40;;
79526;SDS011;68974;47.754;-3.364;2023-12-14T02:27:41;12.68;;;1.65;;
79526;SDS011;68974;47.754;-3.364;2023-12-14T02:30:07;4.50;;;1.10;;
79526;SDS011;68974;47.754;-3.364;2023-12-14T02:32:33;3.17;;;1.20;;
79526;SDS011;68974;47.754;-3.364;2023-12-14T02:34:59;6.55;;;1.60;;
79526;SDS011;68974;47.754;-3.364;2023-12-14T02:37:24;5.45;;;1.10;;
79526;SDS011;68974;47.754;-3.364;2023-12-14T02:39:49;7.43;;;1.30;;
79526;SDS011;68974;47.754;-3.364;2023-12-14T02:42:15;8.05;;;1.30;;
79526;SDS011;68974;47.754;-3.364;2023-12-14T02:44:41;4.15;;;1.17;;
79526;SDS011;68974;47.754;-3.364;2023-12-14T02:47:06;4.90;;;0.98;;
79526;SDS011;68974;47.754;-3.364;2023-12-14T02:49:32;4.82;;;0.98;;
79526;SDS011;68974;47.754;-3.364;2023-12-14T02:51:58;6.55;;;1.50;;
79526;SDS011;68974;47.754;-3.364;2023-12-14T02:54:24;6.93;;;1.13;;
79526;SDS011;68974;47.754;-3.364;2023-12-14T02:56:49;9.02;;;1.40;;
79526;SDS011;68974;47.754;-3.364;2023-12-14T02:59:14;5.32;;;1.50;;
79526;SDS011;68974;47.754;-3.364;2023-12-14T03:01:40;3.72;;;1.08;;
79526;SDS011;68974;47.754;-3.364;2023-12-14T03:04:06;2.25;;;0.98;;
79526;SDS011;68974;47.754;-3.364;2023-12-14T03:06:32;5.20;;;1.00;;
79526;SDS011;68974;47.754;-3.364;2023-12-14T03:08:57;3.10;;;0.80;;
79526;SDS011;68974;47.754;-3.364;2023-12-14T03:11:23;5.75;;;1.45;;
79526;SDS011;68974;47.754;-3.364;2023-12-14T03:13:49;5.72;;;1.25;;
79526;SDS011;68974;47.754;-3.364;2023-12-14T03:16:15;5.47;;;1.90;;
79526;SDS011;68974;47.754;-3.364;2023-12-14T03:18:42;4.50;;;1.00;;
79526;SDS011;68974;47.754;-3.364;2023-12-14T03:21:08;7.97;;;2.25;;
79526;SDS011;68974;47.754;-3.364;2023-12-14T03:23:34;4.07;;;1.60;;
79526;SDS011;68974;47.754;-3.364;2023-12-14T03:26:00;5.70;;;1.30;;
79526;SDS011;68974;47.754;-3.364;2023-12-14T03:28:26;7.15;;;1.90;;
79526;SDS011;68974;47.754;-3.364;2023-12-14T03:30:51;5.65;;;1.20;;
79526;SDS011;68974;47.754;-3.364;2023-12-14T03:33:17;8.20;;;1.30;;
79526;SDS011;68974;47.754;-3.364;2023-12-14T03:35:43;4.22;;;1.00;;
79526;SDS011;68974;47.754;-3.364;2023-12-14T03:38:08;5.78;;;1.20;;
79526;SDS011;68974;47.754;-3.364;2023-12-14T03:40:34;6.03;;;0.90;;
79526;SDS011;68974;47.754;-3.364;2023-12-14T03:43:00;5.20;;;1.10;;
79526;SDS011;68974;47.754;-3.364;2023-12-14T03:45:28;5.38;;;1.20;;
79526;SDS011;68974;47.754;-3.364;2023-12-14T03:47:53;4.28;;;1.30;;
79526;SDS011;68974;47.754;-3.364;2023-12-14T03:50:19;4.03;;;1.33;;
79526;SDS011;68974;47.754;-3.364;2023-12-14T03:52:44;5.65;;;1.23;;
79526;SDS011;68974;47.754;-3.364;2023-12-14T03:55:10;2.97;;;0.88;;
79526;SDS011;68974;47.754;-3.364;2023-12-14T03:57:35;2.42;;;1.00;;
79526;SDS011;68974;47.754;-3.364;2023-12-14T04:00:01;5.40;;;0.90;;
79526;SDS011;68974;47.754;-3.364;2023-12-14T04:02:27;6.15;;;1.17;;
79526;SDS011;68974;47.754;-3.364;2023-12-14T04:04:52;6.93;;;1.23;;
79526;SDS011;68974;47.754;-3.364;2023-12-14T04:07:18;6.65;;;1.48;;
79526;SDS011;68974;47.754;-3.364;2023-12-14T04:09:44;6.00;;;1.55;;
79526;SDS011;68974;47.754;-3.364;2023-12-14T04:12:10;5.57;;;1.10;;
79526;SDS011;68974;47.754;-3.364;2023-12-14T04:14:36;7.82;;;2.45;;
79526;SDS011;68974;47.754;-3.364;2023-12-14T04:17:01;3.25;;;1.00;;
79526;SDS011;68974;47.754;-3.364;2023-12-14T04:19:27;12.80;;;2.22;;
79526;SDS011;68974;47.754;-3.364;2023-12-14T04:21:52;7.90;;;1.02;;
79526;SDS011;68974;47.754;-3.364;2023-12-14T04:24:18;6.63;;;1.15;;
79526;SDS011;68974;47.754;-3.364;2023-12-14T04:26:43;8.00;;;1.17;;
79526;SDS011;68974;47.754;-3.364;2023-12-14T04:29:09;4.30;;;1.42;;
79526;SDS011;68974;47.754;-3.364;2023-12-14T04:31:35;3.58;;;0.93;;
79526;SDS011;68974;47.754;-3.364;2023-12-14T04:34:00;7.10;;;1.20;;
79526;SDS011;68974;47.754;-3.364;2023-12-14T04:36:26;5.60;;;1.40;;
79526;SDS011;68974;47.754;-3.364;2023-12-14T04:38:51;5.20;;;1.20;;
79526;SDS011;68974;47.754;-3.364;2023-12-14T04:41:17;7.28;;;2.38;;
79526;SDS011;68974;47.754;-3.364;2023-12-14T04:43:42;4.97;;;1.35;;
79526;SDS011;68974;47.754;-3.364;2023-12-14T04:46:08;3.35;;;1.42;;
79526;SDS011;68974;47.754;-3.364;2023-12-14T04:48:33;5.47;;;1.20;;
79526;SDS011;68974;47.754;-3.364;2023-12-14T04:50:59;6.35;;;1.70;;
79526;SDS011;68974;47.754;-3.364;2023-12-14T04:53:24;6.78;;;1.48;;
79526;SDS011;68974;47.754;-3.364;2023-12-14T04:55:50;4.35;;;1.13;;
79526;SDS011;68974;47.754;-3.364;2023-12-14T04:58:15;3.60;;;1.10;;
79526;SDS011;68974;47.754;-3.364;2023-12-14T05:00:41;2.85;;;0.98;;
79526;SDS011;68974;47.754;-3.364;2023-12-14T05:03:07;6.25;;;1.40;;
79526;SDS011;68974;47.754;-3.364;2023-12-14T05:05:32;5.55;;;1.23;;
79526;SDS011;68974;47.754;-3.364;2023-12-14T05:07:57;5.07;;;1.30;;
79526;SDS011;68974;47.754;-3.364;2023-12-14T05:10:23;2.83;;;0.98;;
79526;SDS011;68974;47.754;-3.364;2023-12-14T05:12:48;3.97;;;0.95;;
79526;SDS011;68974;47.754;-3.364;2023-12-14T05:15:14;7.30;;;1.42;;
79526;SDS011;68974;47.754;-3.364;2023-12-14T05:17:39;4.18;;;1.00;;
79526;SDS011;68974;47.754;-3.364;2023-12-14T05:20:07;2.97;;;1.30;;
79526;SDS011;68974;47.754;-3.364;2023-12-14T05:22:33;3.83;;;1.10;;
79526;SDS011;68974;47.754;-3.364;2023-12-14T05:24:59;4.47;;;1.10;;
79526;SDS011;68974;47.754;-3.364;2023-12-14T05:27:24;3.35;;;1.08;;
79526;SDS011;68974;47.754;-3.364;2023-12-14T05:29:50;4.15;;;1.20;;
79526;SDS011;68974;47.754;-3.364;2023-12-14T05:32:16;6.47;;;1.00;;
79526;SDS011;68974;47.754;-3.364;2023-12-14T05:34:41;2.80;;;1.08;;
79526;SDS011;68974;47.754;-3.364;2023-12-14T05:37:07;3.30;;;1.27;;
79526;SDS011;68974;47.754;-3.364;2023-12-14T05:39:32;7.13;;;1.40;;
79526;SDS011;68974;47.754;-3.364;2023-12-14T05:41:57;4.20;;;1.00;;
79526;SDS011;68974;47.754;-3.364;2023-12-14T05:44:23;5.47;;;1.15;;
79526;SDS011;68974;47.754;-3.364;2023-12-14T05:46:49;3.55;;;1.42;;
79526;SDS011;68974;47.754;-3.364;2023-12-14T05:49:15;3.70;;;0.98;;
79526;SDS011;68974;47.754;-3.364;2023-12-14T05:51:40;4.75;;;1.10;;
79526;SDS011;68974;47.754;-3.364;2023-12-14T05:54:06;2.85;;;1.02;;
79526;SDS011;68974;47.754;-3.364;2023-12-14T05:56:31;5.45;;;1.05;;
79526;SDS011;68974;47.754;-3.364;2023-12-14T05:58:57;3.85;;;1.15;;
79526;SDS011;68974;47.754;-3.364;2023-12-14T06:01:24;2.78;;;0.80;;
79526;SDS011;68974;47.754;-3.364;2023-12-14T06:03:49;5.22;;;0.80;;
79526;SDS011;68974;47.754;-3.364;2023-12-14T06:06:15;5.65;;;1.42;;
79526;SDS011;68974;47.754;-3.364;2023-12-14T06:08:41;4.60;;;1.73;;
79526;SDS011;68974;47.754;-3.364;2023-12-14T06:11:07;4.00;;;0.90;;
79526;SDS011;68974;47.754;-3.364;2023-12-14T06:13:33;5.38;;;0.95;;
79526;SDS011;68974;47.754;-3.364;2023-12-14T06:15:59;2.80;;;1.38;;
79526;SDS011;68974;47.754;-3.364;2023-12-14T06:18:25;2.85;;;1.00;;
79526;SDS011;68974;47.754;-3.364;2023-12-14T06:20:51;9.63;;;1.50;;
79526;SDS011;68974;47.754;-3.364;2023-12-14T06:23:16;1.98;;;1.33;;
79526;SDS011;68974;47.754;-3.364;2023-12-14T06:25:42;6.97;;;1.40;;
79526;SDS011;68974;47.754;-3.364;2023-12-14T06:28:07;6.68;;;0.98;;
79526;SDS011;68974;47.754;-3.364;2023-12-14T06:30:33;4.68;;;1.10;;
79526;SDS011;68974;47.754;-3.364;2023-12-14T06:32:58;2.83;;;0.60;;
79526;SDS011;68974;47.754;-3.364;2023-12-14T06:35:24;8.50;;;1.65;;
79526;SDS011;68974;47.754;-3.364;2023-12-14T06:37:49;3.65;;;0.88;;
79526;SDS011;68974;47.754;-3.364;2023-12-14T06:40:15;5.97;;;1.27;;
79526;SDS011;68974;47.754;-3.364;2023-12-14T06:42:41;5.22;;;1.60;;
79526;SDS011;68974;47.754;-3.364;2023-12-14T06:45:07;6.13;;;1.05;;
79526;SDS011;68974;47.754;-3.364;2023-12-14T06:47:33;5.07;;;1.20;;
79526;SDS011;68974;47.754;-3.364;2023-12-14T06:49:59;2.70;;;1.08;;
79526;SDS011;68974;47.754;-3.364;2023-12-14T06:52:24;8.60;;;1.30;;
79526;SDS011;68974;47.754;-3.364;2023-12-14T06:54:50;6.03;;;2.30;;
79526;SDS011;68974;47.754;-3.364;2023-12-14T06:57:15;6.43;;;1.40;;
79526;SDS011;68974;47.754;-3.364;2023-12-14T06:59:41;4.82;;;1.45;;
79526;SDS011;68974;47.754;-3.364;2023-12-14T07:02:06;3.28;;;1.20;;
79526;SDS011;68974;47.754;-3.364;2023-12-14T07:04:32;4.47;;;1.80;;
79526;SDS011;68974;47.754;-3.364;2023-12-14T07:06:57;4.57;;;2.22;;
79526;SDS011;68974;47.754;-3.364;2023-12-14T07:09:23;4.65;;;1.38;;
79526;SDS011;68974;47.754;-3.364;2023-12-14T07:11:49;7.10;;;2.25;;
79526;SDS011;68974;47.754;-3.364;2023-12-14T07:14:15;9.10;;;1.38;;
79526;SDS011;68974;47.754;-3.364;2023-12-14T07:16:41;6.57;;;1.00;;
79526;SDS011;68974;47.754;-3.364;2023-12-14T07:19:07;3.85;;;1.52;;
79526;SDS011;68974;47.754;-3.364;2023-12-14T07:21:32;4.97;;;1.85;;
79526;SDS011;68974;47.754;-3.364;2023-12-14T07:23:58;4.22;;;1.10;;
79526;SDS011;68974;47.754;-3.364;2023-12-14T07:26:24;4.80;;;1.50;;
79526;SDS011;68974;47.754;-3.364;2023-12-14T07:28:49;5.35;;;1.25;;
79526;SDS011;68974;47.754;-3.364;2023-12-14T07:31:16;5.93;;;1.77;;
79526;SDS011;68974;47.754;-3.364;2023-12-14T07:33:42;7.38;;;1.10;;
79526;SDS011;68974;47.754;-3.364;2023-12-14T07:36:08;5.40;;;1.35;;
79526;SDS011;68974;47.754;-3.364;2023-12-14T07:38:33;5.28;;;1.63;;
79526;SDS011;68974;47.754;-3.364;2023-12-14T07:40:59;2.55;;;0.90;;
79526;SDS011;68974;47.754;-3.364;2023-12-14T07:43:24;5.45;;;1.35;;
79526;SDS011;68974;47.754;-3.364;2023-12-14T07:45:50;6.32;;;1.40;;
79526;SDS011;68974;47.754;-3.364;2023-12-14T07:48:15;12.07;;;3.88;;
79526;SDS011;68974;47.754;-3.364;2023-12-14T07:50:41;14.85;;;5.97;;
79526;SDS011;68974;47.754;-3.364;2023-12-14T07:53:06;8.45;;;2.30;;
79526;SDS011;68974;47.754;-3.364;2023-12-14T07:55:32;5.78;;;1.80;;
79526;SDS011;68974;47.754;-3.364;2023-12-14T07:57:57;6.88;;;1.90;;
79526;SDS011;68974;47.754;-3.364;2023-12-14T08:00:22;7.90;;;1.70;;
79526;SDS011;68974;47.754;-3.364;2023-12-14T08:02:48;4.15;;;1.58;;
79526;SDS011;68974;47.754;-3.364;2023-12-14T08:05:13;4.35;;;1.67;;
79526;SDS011;68974;47.754;-3.364;2023-12-14T08:07:39;7.45;;;2.42;;
79526;SDS011;68974;47.754;-3.364;2023-12-14T08:10:04;3.80;;;1.25;;
79526;SDS011;68974;47.754;-3.364;2023-12-14T08:12:30;6.88;;;1.92;;
79526;SDS011;68974;47.754;-3.364;2023-12-14T08:14:55;6.63;;;1.40;;
79526;SDS011;68974;47.754;-3.364;2023-12-14T08:17:21;6.82;;;1.40;;
79526;SDS011;68974;47.754;-3.364;2023-12-14T08:19:46;7.68;;;1.92;;
79526;SDS011;68974;47.754;-3.364;2023-12-14T08:22:12;6.50;;;1.80;;
79526;SDS011;68974;47.754;-3.364;2023-12-14T08:24:40;5.47;;;2.15;;
79526;SDS011;68974;47.754;-3.364;2023-12-14T08:27:06;10.48;;;1.70;;
79526;SDS011;68974;47.754;-3.364;2023-12-14T08:29:32;9.93;;;2.08;;
79526;SDS011;68974;47.754;-3.364;2023-12-14T08:31:57;15.15;;;3.42;;
79526;SDS011;68974;47.754;-3.364;2023-12-14T08:34:24;10.57;;;1.75;;
79526;SDS011;68974;47.754;-3.364;2023-12-14T08:36:50;11.23;;;1.98;;
79526;SDS011;68974;47.754;-3.364;2023-12-14T08:39:16;7.97;;;1.60;;
79526;SDS011;68974;47.754;-3.364;2023-12-14T08:41:42;9.25;;;2.13;;
79526;SDS011;68974;47.754;-3.364;2023-12-14T08:44:09;12.45;;;2.40;;
79526;SDS011;68974;47.754;-3.364;2023-12-14T08:46:42;7.50;;;1.67;;
79526;SDS011;68974;47.754;-3.364;2023-12-14T08:49:09;8.82;;;1.90;;
79526;SDS011;68974;47.754;-3.364;2023-12-14T08:51:35;9.93;;;2.20;;
79526;SDS011;68974;47.754;-3.364;2023-12-14T08:54:00;8.93;;;2.53;;
79526;SDS011;68974;47.754;-3.364;2023-12-14T08:56:26;9.32;;;2.33;;
79526;SDS011;68974;47.754;-3.364;2023-12-14T08:58:51;7.20;;;1.17;;
79526;SDS011;68974;47.754;-3.364;2023-12-14T09:01:21;3.70;;;1.45;;
79526;SDS011;68974;47.754;-3.364;2023-12-14T09:03:47;15.18;;;2.45;;
79526;SDS011;68974;47.754;-3.364;2023-12-14T09:06:13;8.00;;;2.05;;
79526;SDS011;68974;47.754;-3.364;2023-12-14T09:08:39;9.05;;;2.10;;
79526;SDS011;68974;47.754;-3.364;2023-12-14T09:11:06;7.55;;;2.15;;
79526;SDS011;68974;47.754;-3.364;2023-12-14T09:13:31;8.85;;;3.05;;
79526;SDS011;68974;47.754;-3.364;2023-12-14T09:15:57;8.48;;;3.58;;
79526;SDS011;68974;47.754;-3.364;2023-12-14T09:18:22;10.68;;;2.13;;
79526;SDS011;68974;47.754;-3.364;2023-12-14T09:20:49;6.45;;;1.92;;
79526;SDS011;68974;47.754;-3.364;2023-12-14T09:23:15;12.50;;;2.17;;
79526;SDS011;68974;47.754;-3.364;2023-12-14T09:25:41;8.57;;;2.30;;
79526;SDS011;68974;47.754;-3.364;2023-12-14T09:28:06;10.05;;;3.10;;
79526;SDS011;68974;47.754;-3.364;2023-12-14T09:30:32;8.10;;;2.38;;
79526;SDS011;68974;47.754;-3.364;2023-12-14T09:32:58;10.73;;;2.45;;
79526;SDS011;68974;47.754;-3.364;2023-12-14T09:35:23;9.90;;;2.30;;
79526;SDS011;68974;47.754;-3.364;2023-12-14T09:37:49;10.13;;;2.10;;
79526;SDS011;68974;47.754;-3.364;2023-12-14T09:40:15;8.27;;;2.20;;
79526;SDS011;68974;47.754;-3.364;2023-12-14T09:42:41;6.95;;;2.28;;
79526;SDS011;68974;47.754;-3.364;2023-12-14T09:45:07;11.98;;;2.33;;
79526;SDS011;68974;47.754;-3.364;2023-12-14T09:47:37;10.88;;;3.10;;
79526;SDS011;68974;47.754;-3.364;2023-12-14T09:50:03;12.63;;;2.63;;
79526;SDS011;68974;47.754;-3.364;2023-12-14T09:52:30;9.40;;;2.15;;
79526;SDS011;68974;47.754;-3.364;2023-12-14T09:54:55;10.95;;;2.17;;
79526;SDS011;68974;47.754;-3.364;2023-12-14T09:57:21;10.50;;;2.30;;
79526;SDS011;68974;47.754;-3.364;2023-12-14T09:59:54;6.10;;;1.92;;
79526;SDS011;68974;47.754;-3.364;2023-12-14T10:02:20;10.18;;;2.55;;
79526;SDS011;68974;47.754;-3.364;2023-12-14T10:04:53;8.00;;;2.53;;
79526;SDS011;68974;47.754;-3.364;2023-12-14T10:07:18;10.57;;;1.90;;
79526;SDS011;68974;47.754;-3.364;2023-12-14T10:09:46;9.27;;;2.53;;
79526;SDS011;68974;47.754;-3.364;2023-12-14T10:12:12;9.48;;;2.28;;
79526;SDS011;68974;47.754;-3.364;2023-12-14T10:14:37;8.13;;;2.70;;
79526;SDS011;68974;47.754;-3.364;2023-12-14T10:17:19;10.98;;;2.05;;
79526;SDS011;68974;47.754;-3.364;2023-12-14T10:19:45;8.15;;;2.42;;
79526;SDS011;68974;47.754;-3.364;2023-12-14T10:22:13;9.80;;;2.28;;
79526;SDS011;68974;47.754;-3.364;2023-12-14T10:24:42;12.35;;;2.90;;
79526;SDS011;68974;47.754;-3.364;2023-12-14T10:27:12;11.80;;;2.90;;
79526;SDS011;68974;47.754;-3.364;2023-12-14T10:29:39;11.98;;;2.90;;
79526;SDS011;68974;47.754;-3.364;2023-12-14T10:32:06;11.48;;;3.45;;
79526;SDS011;68974;47.754;-3.364;2023-12-14T10:34:34;8.90;;;2.80;;
79526;SDS011;68974;47.754;-3.364;2023-12-14T10:37:01;12.05;;;3.55;;
79526;SDS011;68974;47.754;-3.364;2023-12-14T10:39:29;10.73;;;3.50;;
79526;SDS011;68974;47.754;-3.364;2023-12-14T10:41:56;13.63;;;3.58;;
79526;SDS011;68974;47.754;-3.364;2023-12-14T10:44:25;8.82;;;2.78;;
79526;SDS011;68974;47.754;-3.364;2023-12-14T10:46:52;15.82;;;5.00;;
79526;SDS011;68974;47.754;-3.364;2023-12-14T10:49:23;14.18;;;3.72;;
79526;SDS011;68974;47.754;-3.364;2023-12-14T10:51:51;8.70;;;3.35;;
79526;SDS011;68974;47.754;-3.364;2023-12-14T10:54:20;9.48;;;3.22;;
79526;SDS011;68974;47.754;-3.364;2023-12-14T10:56:48;10.88;;;3.10;;
79526;SDS011;68974;47.754;-3.364;2023-12-14T10:59:17;16.27;;;3.05;;
79526;SDS011;68974;47.754;-3.364;2023-12-14T11:01:43;14.30;;;3.50;;
79526;SDS011;68974;47.754;-3.364;2023-12-14T11:04:08;12.32;;;3.05;;
79526;SDS011;68974;47.754;-3.364;2023-12-14T11:06:38;9.13;;;2.65;;
79526;SDS011;68974;47.754;-3.364;2023-12-14T11:09:05;9.35;;;3.10;;
79526;SDS011;68974;47.754;-3.364;2023-12-14T11:14:13;11.80;;;4.13;;
79526;SDS011;68974;47.754;-3.364;2023-12-14T11:16:38;14.13;;;2.95;;
79526;SDS011;68974;47.754;-3.364;2023-12-14T11:21:48;13.30;;;3.83;;
79526;SDS011;68974;47.754;-3.364;2023-12-14T11:24:13;10.32;;;3.15;;
79526;SDS011;68974;47.754;-3.364;2023-12-14T11:26:39;11.02;;;1.83;;
79526;SDS011;68974;47.754;-3.364;2023-12-14T11:29:06;10.77;;;2.05;;
79526;SDS011;68974;47.754;-3.364;2023-12-14T11:31:31;12.30;;;1.95;;
79526;SDS011;68974;47.754;-3.364;2023-12-14T11:33:58;8.10;;;1.58;;
79526;SDS011;68974;47.754;-3.364;2023-12-14T11:36:26;11.73;;;1.85;;
79526;SDS011;68974;47.754;-3.364;2023-12-14T11:38:51;7.43;;;1.38;;
79526;SDS011;68974;47.754;-3.364;2023-12-14T11:41:20;9.88;;;1.63;;
79526;SDS011;68974;47.754;-3.364;2023-12-14T11:43:46;6.40;;;1.42;;
79526;SDS011;68974;47.754;-3.364;2023-12-14T11:46:12;8.93;;;2.10;;
79526;SDS011;68974;47.754;-3.364;2023-12-14T11:48:39;6.28;;;1.80;;
79526;SDS011;68974;47.754;-3.364;2023-12-14T11:51:05;8.95;;;1.30;;
79526;SDS011;68974;47.754;-3.364;2023-12-14T11:53:30;6.90;;;1.50;;
79526;SDS011;68974;47.754;-3.364;2023-12-14T11:55:58;7.13;;;1.48;;
79526;SDS011;68974;47.754;-3.364;2023-12-14T11:58:25;8.18;;;1.20;;
79526;SDS011;68974;47.754;-3.364;2023-12-14T12:00:51;11.85;;;3.40;;
79526;SDS011;68974;47.754;-3.364;2023-12-14T12:03:18;6.55;;;2.65;;
79526;SDS011;68974;47.754;-3.364;2023-12-14T12:05:50;12.75;;;2.13;;
79526;SDS011;68974;47.754;-3.364;2023-12-14T12:08:18;8.02;;;1.85;;
79526;SDS011;68974;47.754;-3.364;2023-12-14T12:10:45;9.85;;;1.60;;
79526;SDS011;68974;47.754;-3.364;2023-12-14T12:13:15;6.95;;;1.13;;
79526;SDS011;68974;47.754;-3.364;2023-12-14T12:15:45;6.95;;;1.30;;
79526;SDS011;68974;47.754;-3.364;2023-12-14T12:18:12;10.25;;;2.00;;
79526;SDS011;68974;47.754;-3.364;2023-12-14T12:20:39;6.22;;;1.25;;
79526;SDS011;68974;47.754;-3.364;2023-12-14T12:23:05;6.35;;;1.20;;
79526;SDS011;68974;47.754;-3.364;2023-12-14T12:25:31;6.80;;;1.80;;
79526;SDS011;68974;47.754;-3.364;2023-12-14T12:28:00;10.07;;;2.30;;
79526;SDS011;68974;47.754;-3.364;2023-12-14T12:30:27;6.60;;;1.70;;
79526;SDS011;68974;47.754;-3.364;2023-12-14T12:32:53;5.88;;;1.33;;
79526;SDS011;68974;47.754;-3.364;2023-12-14T12:35:20;5.88;;;1.65;;
79526;SDS011;68974;47.754;-3.364;2023-12-14T12:37:47;5.63;;;1.98;;
79526;SDS011;68974;47.754;-3.364;2023-12-14T12:40:18;8.32;;;1.70;;
79526;SDS011;68974;47.754;-3.364;2023-12-14T12:42:47;4.25;;;1.27;;
79526;SDS011;68974;47.754;-3.364;2023-12-14T12:45:14;4.70;;;1.75;;
79526;SDS011;68974;47.754;-3.364;2023-12-14T12:47:44;4.07;;;1.50;;
79526;SDS011;68974;47.754;-3.364;2023-12-14T12:50:10;3.55;;;1.40;;
79526;SDS011;68974;47.754;-3.364;2023-12-14T12:52:36;5.28;;;1.40;;
79526;SDS011;68974;47.754;-3.364;2023-12-14T12:55:02;2.78;;;0.98;;
79526;SDS011;68974;47.754;-3.364;2023-12-14T12:57:29;6.15;;;1.42;;
79526;SDS011;68974;47.754;-3.364;2023-12-14T12:59:55;4.10;;;0.98;;
79526;SDS011;68974;47.754;-3.364;2023-12-14T13:02:20;2.33;;;0.70;;
79526;SDS011;68974;47.754;-3.364;2023-12-14T13:04:46;5.80;;;1.30;;
79526;SDS011;68974;47.754;-3.364;2023-12-14T13:07:12;2.97;;;0.98;;
79526;SDS011;68974;47.754;-3.364;2023-12-14T13:09:37;3.22;;;0.93;;
79526;SDS011;68974;47.754;-3.364;2023-12-14T13:12:03;3.97;;;0.95;;
79526;SDS011;68974;47.754;-3.364;2023-12-14T13:14:29;2.83;;;0.90;;
79526;SDS011;68974;47.754;-3.364;2023-12-14T13:16:56;3.22;;;0.68;;
79526;SDS011;68974;47.754;-3.364;2023-12-14T13:19:23;5.30;;;1.00;;
79526;SDS011;68974;47.754;-3.364;2023-12-14T13:21:49;3.22;;;1.00;;
79526;SDS011;68974;47.754;-3.364;2023-12-14T13:24:14;7.10;;;1.15;;
79526;SDS011;68974;47.754;-3.364;2023-12-14T13:26:40;4.20;;;0.75;;
79526;SDS011;68974;47.754;-3.364;2023-12-14T13:29:05;2.72;;;1.02;;
79526;SDS011;68974;47.754;-3.364;2023-12-14T13:31:31;4.90;;;1.77;;
79526;SDS011;68974;47.754;-3.364;2023-12-14T13:33:56;3.50;;;0.90;;
79526;SDS011;68974;47.754;-3.364;2023-12-14T13:36:22;4.53;;;1.15;;
79526;SDS011;68974;47.754;-3.364;2023-12-14T13:38:48;5.00;;;1.50;;
79526;SDS011;68974;47.754;-3.364;2023-12-14T13:41:14;3.95;;;1.52;;
79526;SDS011;68974;47.754;-3.364;2023-12-14T13:43:39;8.38;;;1.13;;
79526;SDS011;68974;47.754;-3.364;2023-12-14T13:46:05;4.60;;;1.42;;
79526;SDS011;68974;47.754;-3.364;2023-12-14T13:48:31;11.70;;;2.10;;
79526;SDS011;68974;47.754;-3.364;2023-12-14T13:50:57;5.43;;;1.45;;
79526;SDS011;68974;47.754;-3.364;2023-12-14T13:53:22;11.07;;;1.45;;
79526;SDS011;68974;47.754;-3.364;2023-12-14T13:55:48;6.05;;;1.45;;
79526;SDS011;68974;47.754;-3.364;2023-12-14T13:58:15;9.85;;;1.58;;
79526;SDS011;68974;47.754;-3.364;2023-12-14T14:00:41;4.60;;;1.27;;
79526;SDS011;68974;47.754;-3.364;2023-12-14T14:03:08;6.10;;;1.65;;
79526;SDS011;68974;47.754;-3.364;2023-12-14T14:05:34;4.72;;;1.00;;
79526;SDS011;68974;47.754;-3.364;2023-12-14T14:07:59;4.18;;;1.02;;
79526;SDS011;68974;47.754;-3.364;2023-12-14T14:10:25;4.22;;;0.95;;
79526;SDS011;68974;47.754;-3.364;2023-12-14T14:12:51;7.15;;;1.10;;
79526;SDS011;68974;47.754;-3.364;2023-12-14T14:15:18;3.63;;;0.80;;
79526;SDS011;68974;47.754;-3.364;2023-12-14T14:17:45;7.05;;;1.77;;
79526;SDS011;68974;47.754;-3.364;2023-12-14T14:20:13;6.68;;;1.55;;
79526;SDS011;68974;47.754;-3.364;2023-12-14T14:22:39;8.38;;;1.95;;
79526;SDS011;68974;47.754;-3.364;2023-12-14T14:25:05;5.53;;;1.67;;
79526;SDS011;68974;47.754;-3.364;2023-12-14T14:27:31;8.60;;;1.30;;
79526;SDS011;68974;47.754;-3.364;2023-12-14T14:29:59;7.55;;;1.83;;
79526;SDS011;68974;47.754;-3.364;2023-12-14T14:32:25;3.95;;;1.50;;